Time;durP1;ratioP1;P1;durP2;ratioP2;P2;SDS_P1;SDS_P2;PMS_P1;PMS_P2;Temp;Humidity;BMP_temperature;BMP_pressure;BME280_temperature;BME280_humidity;BME280_pressure;Samples;Min_cycle;Max_cycle;Signal;HPM_P1;HPM_P2
2022/09/25 00:01:18;;;;;;;3.03;1.73;;;18.00;99.90;;;;;;5030761;28;20205;-68
2022/09/25 00:03:49;;;;;;;2.15;1.60;;;18.10;99.90;;;;;;5029874;28;20679;-77
2022/09/25 00:06:23;;;;;;;2.97;1.80;;;18.30;99.90;;;;;;5032289;28;20205;-69
2022/09/25 00:08:54;;;;;;;3.95;1.60;;;18.30;99.90;;;;;;5032390;28;20559;-69
2022/09/25 00:11:26;;;;;;;2.83;1.60;;;18.30;99.90;;;;;;5032132;28;20194;-69
2022/09/25 00:13:58;;;;;;;2.25;1.35;;;18.40;99.90;;;;;;5031777;28;20194;-69
2022/09/25 00:16:29;;;;;;;2.80;1.27;;;18.60;99.90;;;;;;5031777;28;20194;-70
2022/09/25 00:21:52;;;;;;;2.15;1.38;;;18.60;99.90;;;;;;5030670;28;20198;-71
2022/09/25 00:24:23;;;;;;;2.00;1.27;;;18.80;99.90;;;;;;5031003;28;20220;-74
2022/09/25 00:26:54;;;;;;;2.90;1.50;;;18.80;99.90;;;;;;5030814;28;20191;-75
2022/09/25 00:29:24;;;;;;;1.63;1.05;;;18.80;99.90;;;;;;5030906;28;20200;-70
2022/09/25 00:31:57;;;;;;;2.03;1.10;;;18.90;99.90;;;;;;5026854;28;20222;-74
2022/09/25 00:34:28;;;;;;;2.90;1.25;;;18.90;99.90;;;;;;5029410;28;20194;-73
2022/09/25 00:37:01;;;;;;;1.52;1.20;;;19.00;99.90;;;;;;5025550;28;20243;-75
2022/09/25 00:39:32;;;;;;;1.80;1.05;;;19.20;99.90;;;;;;5029035;28;20221;-75
2022/09/25 00:42:03;;;;;;;2.08;1.30;;;19.20;99.90;;;;;;5030335;28;20557;-72
2022/09/25 00:44:55;;;;;;;2.58;1.20;;;19.30;99.90;;;;;;5029522;28;20557;-72
2022/09/25 00:47:32;;;;;;;2.20;1.30;;;19.50;99.90;;;;;;5026872;28;20190;-73
2022/09/25 00:50:06;;;;;;;1.48;1.20;;;19.70;99.90;;;;;;5032330;28;20600;-69
2022/09/25 00:52:38;;;;;;;2.22;1.05;;;19.80;99.90;;;;;;5028854;28;20684;-73
2022/09/25 00:55:11;;;;;;;1.77;1.00;;;19.80;99.90;;;;;;5030466;28;20364;-71
2022/09/25 00:57:44;;;;;;;2.28;1.13;;;19.90;99.90;;;;;;5031668;28;20702;-71
2022/09/25 01:00:15;;;;;;;1.77;1.10;;;20.00;99.90;;;;;;5040554;28;20285;-69
2022/09/25 01:02:48;;;;;;;2.03;1.15;;;20.20;99.90;;;;;;5031669;28;20206;-73
2022/09/25 01:05:22;;;;;;;2.05;1.15;;;20.30;99.90;;;;;;5033979;28;20205;-76
2022/09/25 01:07:56;;;;;;;2.65;1.20;;;20.40;99.90;;;;;;5035437;28;20207;-76
2022/09/25 01:10:27;;;;;;;3.15;1.15;;;20.30;99.90;;;;;;5034567;28;20654;-73
2022/09/25 01:12:59;;;;;;;1.92;1.00;;;20.40;99.90;;;;;;5034977;28;20186;-76
2022/09/25 01:15:38;;;;;;;1.27;1.17;;;20.60;99.90;;;;;;5029375;28;20202;-72
2022/09/25 01:18:19;;;;;;;1.63;1.00;;;20.70;99.90;;;;;;5033699;28;20264;-69
2022/09/25 01:21:11;;;;;;;1.17;1.00;;;20.80;99.90;;;;;;5034695;28;20194;-71
2022/09/25 01:24:11;;;;;;;2.42;1.13;;;20.90;99.90;;;;;;5033314;28;20611;-75
2022/09/25 01:27:13;;;;;;;0.80;0.80;;;20.90;99.90;;;;;;5032222;28;20208;-68
2022/09/25 01:29:52;;;;;;;1.25;0.90;;;21.00;99.90;;;;;;5030782;28;20204;-73
2022/09/25 01:32:30;;;;;;;2.00;1.10;;;21.10;99.90;;;;;;5033962;28;20232;-75
2022/09/25 01:35:04;;;;;;;1.55;1.15;;;21.00;99.90;;;;;;5033962;28;20204;-68
2022/09/25 01:37:40;;;;;;;1.65;1.10;;;21.10;99.90;;;;;;5034839;28;20303;-75
2022/09/25 01:40:17;;;;;;;3.53;1.40;;;21.10;99.90;;;;;;5047807;28;20280;-76
2022/09/25 01:42:53;;;;;;;1.20;1.00;;;21.10;99.90;;;;;;5034260;28;20186;-76
2022/09/25 01:45:31;;;;;;;2.97;1.17;;;21.10;99.90;;;;;;5033977;28;20654;-76
2022/09/25 01:48:05;;;;;;;1.13;1.00;;;21.20;99.90;;;;;;5036412;28;20664;-76
2022/09/25 01:50:46;;;;;;;1.30;1.10;;;21.20;99.90;;;;;;5029743;28;20582;-74
2022/09/25 01:53:22;;;;;;;1.60;1.23;;;21.30;99.90;;;;;;5028225;28;20197;-77
2022/09/25 01:55:57;;;;;;;1.38;1.10;;;21.20;99.90;;;;;;5028798;28;20194;-76
2022/09/25 01:58:33;;;;;;;1.85;1.13;;;21.10;99.90;;;;;;5034511;28;20214;-76
2022/09/25 02:01:09;;;;;;;2.05;1.08;;;21.20;99.90;;;;;;5035106;28;20182;-77
2022/09/25 02:03:44;;;;;;;1.00;0.90;;;21.20;99.90;;;;;;5033103;28;20630;-76
2022/09/25 02:06:20;;;;;;;1.20;0.90;;;21.40;99.90;;;;;;5035724;28;20186;-77
2022/09/25 02:08:54;;;;;;;2.97;1.15;;;21.50;99.90;;;;;;5034642;28;20190;-76
2022/09/25 02:11:27;;;;;;;2.75;1.35;;;21.50;99.90;;;;;;5032003;28;20247;-72
2022/09/25 02:14:04;;;;;;;1.27;1.00;;;21.50;99.90;;;;;;5027786;28;20202;-69
2022/09/25 02:16:42;;;;;;;1.90;1.05;;;21.50;99.90;;;;;;5033027;28;20650;-78
2022/09/25 02:22:08;;;;;;;2.30;1.10;;;21.60;99.90;;;;;;5035896;28;20196;-71
2022/09/25 02:24:45;;;;;;;1.50;1.02;;;21.60;99.90;;;;;;5032922;28;20194;-71
2022/09/25 02:27:17;;;;;;;1.20;1.10;;;21.70;99.90;;;;;;5032637;28;20195;-77
2022/09/25 02:29:47;;;;;;;1.77;1.27;;;21.80;99.90;;;;;;5037093;28;20656;-73
2022/09/25 02:32:23;;;;;;;2.42;1.20;;;21.80;99.90;;;;;;5032031;28;20244;-77
2022/09/25 02:34:54;;;;;;;1.48;1.27;;;21.80;99.90;;;;;;5029042;28;20193;-77
2022/09/25 02:37:25;;;;;;;1.33;1.17;;;21.80;99.90;;;;;;5032825;28;20237;-75
2022/09/25 02:39:58;;;;;;;1.40;0.93;;;21.80;99.90;;;;;;5033961;28;20210;-77
2022/09/25 02:42:39;;;;;;;1.77;0.95;;;21.90;99.90;;;;;;5034114;28;20199;-77
2022/09/25 02:45:30;;;;;;;1.35;1.10;;;22.00;99.90;;;;;;5038554;28;20190;-75
2022/09/25 02:48:12;;;;;;;2.47;1.00;;;22.00;99.90;;;;;;5027173;28;20200;-77
2022/09/25 02:50:52;;;;;;;1.98;1.00;;;22.00;99.90;;;;;;5029438;28;20200;-74
2022/09/25 02:53:32;;;;;;;1.35;0.70;;;21.90;99.90;;;;;;5033900;28;20198;-77
2022/09/25 02:56:05;;;;;;;1.13;0.80;;;21.90;99.90;;;;;;5033788;28;20189;-77
2022/09/25 02:58:41;;;;;;;0.80;0.80;;;22.00;99.90;;;;;;5033391;28;20210;-76
2022/09/25 03:01:14;;;;;;;1.13;0.95;;;22.10;99.90;;;;;;5033835;28;20182;-77
2022/09/25 03:03:49;;;;;;;1.35;0.90;;;22.00;99.90;;;;;;5033447;28;20190;-77
2022/09/25 03:06:19;;;;;;;1.55;1.00;;;22.00;99.90;;;;;;5033532;28;20190;-77
2022/09/25 03:08:55;;;;;;;1.13;1.02;;;22.10;99.90;;;;;;5033361;28;20198;-72
2022/09/25 03:11:27;;;;;;;0.85;0.82;;;22.10;99.90;;;;;;5033672;28;20190;-77
2022/09/25 03:14:03;;;;;;;1.13;0.80;;;22.10;99.90;;;;;;5029233;28;20546;-77
2022/09/25 03:16:40;;;;;;;1.23;0.90;;;22.20;99.90;;;;;;5029302;28;20190;-76
2022/09/25 03:19:12;;;;;;;1.23;1.00;;;22.10;99.90;;;;;;5025645;28;20275;-76
2022/09/25 03:21:43;;;;;;;2.08;0.77;;;22.10;99.90;;;;;;5033412;28;20558;-77
2022/09/25 03:24:14;;;;;;;1.27;1.00;;;22.10;99.90;;;;;;5028137;28;20194;-76
2022/09/25 03:26:45;;;;;;;1.10;0.90;;;22.00;99.90;;;;;;5032704;28;20198;-73
2022/09/25 03:29:16;;;;;;;0.80;0.80;;;22.00;99.90;;;;;;5033133;28;20245;-77
2022/09/25 03:31:47;;;;;;;1.08;0.98;;;22.00;99.90;;;;;;5032753;28;20218;-76
2022/09/25 03:34:21;;;;;;;0.70;0.70;;;22.10;99.90;;;;;;5031000;28;20197;-76
2022/09/25 03:36:52;;;;;;;1.38;0.82;;;22.10;99.90;;;;;;5032733;28;20231;-70
2022/09/25 03:39:23;;;;;;;0.70;0.70;;;22.10;99.90;;;;;;5030607;28;20206;-74
2022/09/25 03:41:53;;;;;;;0.73;0.70;;;22.10;99.90;;;;;;5033279;28;20200;-77
2022/09/25 03:44:24;;;;;;;1.52;0.98;;;22.10;99.90;;;;;;5033114;28;20191;-72
2022/09/25 03:46:55;;;;;;;0.80;0.80;;;22.20;99.90;;;;;;5032942;28;20186;-77
2022/09/25 03:49:27;;;;;;;1.42;0.80;;;22.20;99.90;;;;;;5025017;28;20634;-76
2022/09/25 03:51:59;;;;;;;0.75;0.75;;;22.30;99.90;;;;;;5033002;28;20189;-76
2022/09/25 03:54:29;;;;;;;1.98;1.00;;;22.30;99.90;;;;;;5025405;28;20182;-76
2022/09/25 03:57:01;;;;;;;1.45;0.75;;;22.30;99.90;;;;;;5030947;28;20886;-77
2022/09/25 03:59:31;;;;;;;0.68;0.68;;;22.20;99.90;;;;;;5031991;28;20213;-76
2022/09/25 04:02:02;;;;;;;1.10;0.90;;;22.10;99.90;;;;;;5032687;28;20186;-76
2022/09/25 04:04:36;;;;;;;0.70;0.70;;;22.10;99.90;;;;;;5032686;28;20186;-76
2022/09/25 04:07:07;;;;;;;1.08;0.70;;;22.10;99.90;;;;;;5032653;28;20210;-77
2022/09/25 04:09:38;;;;;;;1.70;0.80;;;22.10;99.90;;;;;;5024980;28;20265;-76
2022/09/25 04:12:10;;;;;;;0.90;0.80;;;22.20;99.90;;;;;;5032763;28;20190;-77
2022/09/25 04:14:41;;;;;;;1.02;0.88;;;22.20;99.90;;;;;;5025289;28;20198;-76
2022/09/25 04:17:12;;;;;;;1.15;0.90;;;22.20;99.90;;;;;;5032462;28;20600;-73
2022/09/25 04:19:45;;;;;;;2.78;1.30;;;22.20;99.90;;;;;;5025036;28;20214;-74
2022/09/25 04:22:16;;;;;;;1.73;1.10;;;22.00;99.90;;;;;;5032155;28;20273;-72
2022/09/25 04:24:49;;;;;;;4.05;1.20;;;21.80;99.90;;;;;;5025254;28;20650;-71
2022/09/25 04:27:26;;;;;;;2.70;1.20;;;21.60;99.90;;;;;;5032122;28;20197;-69
2022/09/25 04:29:56;;;;;;;2.83;1.10;;;21.50;99.90;;;;;;5032800;28;20273;-73
2022/09/25 04:35:16;;;;;;;3.78;1.40;;;21.40;99.90;;;;;;5032273;28;20655;-74
2022/09/25 04:37:47;;;;;;;3.00;1.15;;;21.30;99.90;;;;;;5036071;28;20238;-68
2022/09/25 04:40:17;;;;;;;2.17;1.17;;;21.30;99.90;;;;;;5036490;28;20214;-71
2022/09/25 04:42:48;;;;;;;2.55;1.20;;;21.30;99.90;;;;;;5036359;28;20187;-73
2022/09/25 04:45:19;;;;;;;3.42;1.35;;;21.10;99.90;;;;;;5036604;28;20549;-69
2022/09/25 04:47:50;;;;;;;3.00;1.30;;;21.10;99.90;;;;;;5035937;28;20200;-73
2022/09/25 04:50:22;;;;;;;2.50;1.13;;;21.00;99.90;;;;;;5036127;28;20190;-74
2022/09/25 04:52:53;;;;;;;1.60;1.27;;;21.10;99.90;;;;;;5035604;28;20193;-73
2022/09/25 04:55:26;;;;;;;2.28;1.08;;;21.00;99.90;;;;;;5036397;28;20186;-69
2022/09/25 04:57:58;;;;;;;1.88;1.15;;;21.00;99.90;;;;;;5036166;28;20198;-68
2022/09/25 05:00:30;;;;;;;3.45;1.35;;;20.90;99.90;;;;;;5035977;28;20220;-70
2022/09/25 05:03:01;;;;;;;2.60;1.25;;;20.90;99.90;;;;;;5028183;28;20198;-68
2022/09/25 05:05:34;;;;;;;2.25;1.20;;;21.00;99.90;;;;;;5035910;28;20194;-68
2022/09/25 05:08:05;;;;;;;2.42;1.23;;;20.90;99.90;;;;;;5029119;28;20285;-73
2022/09/25 05:10:38;;;;;;;2.65;1.17;;;20.80;99.90;;;;;;5035909;28;20190;-73
2022/09/25 05:13:10;;;;;;;4.05;1.20;;;20.90;99.90;;;;;;5028452;28;20193;-73
2022/09/25 05:15:40;;;;;;;2.40;1.10;;;20.80;99.90;;;;;;5035697;28;20198;-72
2022/09/25 05:18:17;;;;;;;1.30;1.17;;;20.80;99.90;;;;;;5028129;28;20187;-76
2022/09/25 05:20:49;;;;;;;2.97;1.20;;;20.80;99.90;;;;;;5035150;28;20213;-76
2022/09/25 05:23:20;;;;;;;3.85;1.10;;;20.80;99.90;;;;;;5035686;28;20187;-76
2022/09/25 05:25:57;;;;;;;1.60;1.02;;;20.70;99.90;;;;;;5035106;28;20356;-77
2022/09/25 05:28:27;;;;;;;2.08;1.02;;;20.70;99.90;;;;;;5035847;28;20197;-76
2022/09/25 05:31:01;;;;;;;2.13;1.00;;;20.60;99.90;;;;;;5034782;28;20690;-77
2022/09/25 05:33:32;;;;;;;1.75;1.10;;;20.60;99.90;;;;;;5035415;28;20199;-77
2022/09/25 05:36:07;;;;;;;2.83;1.10;;;20.50;99.90;;;;;;5034793;28;20194;-77
2022/09/25 05:38:39;;;;;;;2.67;1.20;;;20.40;99.90;;;;;;5029929;28;20190;-75
2022/09/25 05:41:11;;;;;;;1.98;0.90;;;20.30;99.90;;;;;;5035130;28;20220;-73
2022/09/25 05:43:43;;;;;;;1.75;1.10;;;20.30;99.90;;;;;;5035302;28;20198;-74
2022/09/25 05:46:14;;;;;;;2.83;1.10;;;20.20;99.90;;;;;;5033518;28;20194;-74
2022/09/25 05:48:45;;;;;;;1.77;1.10;;;20.20;99.90;;;;;;5034939;28;20182;-74
2022/09/25 05:51:18;;;;;;;3.38;1.08;;;20.20;99.90;;;;;;5034598;28;20220;-74
2022/09/25 05:53:48;;;;;;;1.00;0.90;;;20.10;99.90;;;;;;5034957;28;20197;-71
2022/09/25 05:56:19;;;;;;;3.20;1.00;;;20.20;99.90;;;;;;5035071;28;20187;-73
2022/09/25 05:58:50;;;;;;;3.50;1.20;;;20.10;99.90;;;;;;5035147;28;20190;-73
2022/09/25 06:01:21;;;;;;;1.88;1.15;;;20.00;99.90;;;;;;5034501;28;20563;-74
2022/09/25 06:03:51;;;;;;;3.47;1.08;;;20.00;99.90;;;;;;5034767;28;20187;-73
2022/09/25 06:06:24;;;;;;;1.00;0.90;;;20.00;99.90;;;;;;5034695;28;20206;-74
2022/09/25 06:08:57;;;;;;;3.08;1.08;;;20.00;99.90;;;;;;5034778;28;20186;-72
2022/09/25 06:11:30;;;;;;;4.20;0.98;;;19.90;99.90;;;;;;5034744;28;20198;-71
2022/09/25 06:14:01;;;;;;;1.85;1.30;;;19.90;99.90;;;;;;5034765;28;20186;-76
2022/09/25 06:16:32;;;;;;;1.30;0.98;;;19.80;99.90;;;;;;5034668;28;20650;-74
2022/09/25 06:19:03;;;;;;;2.95;0.90;;;19.70;99.90;;;;;;5034388;28;20191;-72
2022/09/25 06:21:35;;;;;;;2.65;1.00;;;19.60;99.90;;;;;;5034187;28;20203;-73
2022/09/25 06:24:06;;;;;;;2.55;0.95;;;19.60;99.90;;;;;;5031783;28;20190;-74
2022/09/25 06:26:37;;;;;;;1.00;0.90;;;19.50;99.90;;;;;;5035504;28;20198;-75
2022/09/25 06:29:08;;;;;;;2.13;0.77;;;19.40;99.90;;;;;;5032007;28;20200;-75
2022/09/25 06:31:38;;;;;;;1.98;0.80;;;19.30;99.90;;;;;;5038335;28;20228;-70
2022/09/25 06:34:11;;;;;;;3.65;0.90;;;19.10;99.90;;;;;;5034248;28;20187;-71
2022/09/25 06:36:43;;;;;;;1.90;1.00;;;19.10;99.90;;;;;;5033842;28;20313;-70
2022/09/25 06:39:14;;;;;;;2.70;0.88;;;19.10;99.90;;;;;;5033977;28;20273;-69
2022/09/25 06:41:45;;;;;;;1.02;0.77;;;19.00;99.90;;;;;;5033909;28;20199;-74
2022/09/25 06:44:15;;;;;;;1.67;1.00;;;19.00;99.90;;;;;;5033682;28;20191;-68
2022/09/25 06:46:49;;;;;;;1.67;0.80;;;18.90;99.90;;;;;;5025838;28;20309;-67
2022/09/25 06:49:20;;;;;;;3.67;1.15;;;18.90;99.90;;;;;;5033829;28;20194;-74
2022/09/25 06:51:53;;;;;;;1.75;0.80;;;18.90;99.90;;;;;;5033925;28;20643;-74
2022/09/25 06:54:24;;;;;;;2.63;0.90;;;18.80;99.90;;;;;;5033746;28;20194;-74
2022/09/25 06:56:54;;;;;;;1.38;0.90;;;18.80;99.90;;;;;;5033653;28;20193;-74
2022/09/25 06:59:25;;;;;;;3.13;1.13;;;18.70;99.90;;;;;;5032456;28;20193;-73
2022/09/25 07:03:43;;;;;;;2.95;1.00;;;18.70;99.90;;;;;;5027153;28;20244;-72
2022/09/25 07:04:45;;;;;;;2.80;1.10;;;18.70;99.90;;;;;;5032056;28;20191;-69
2022/09/25 07:07:19;;;;;;;1.73;0.90;;;18.60;99.90;;;;;;5033611;28;20190;-70
2022/09/25 07:09:50;;;;;;;1.02;0.90;;;18.60;99.90;;;;;;5033431;28;20197;-69
2022/09/25 07:12:21;;;;;;;2.75;0.95;;;18.50;99.90;;;;;;5033596;28;20197;-69
2022/09/25 07:14:52;;;;;;;1.70;0.90;;;18.50;99.90;;;;;;5033545;28;20197;-69
2022/09/25 07:17:22;;;;;;;1.40;0.75;;;18.40;99.90;;;;;;5033248;28;20597;-70
2022/09/25 07:19:53;;;;;;;1.65;1.40;;;18.40;99.90;;;;;;5033078;28;20213;-68
2022/09/25 07:22:26;;;;;;;2.25;1.00;;;18.40;99.90;;;;;;5033470;28;20190;-68
2022/09/25 07:24:57;;;;;;;1.98;0.80;;;18.30;99.90;;;;;;5033212;28;20186;-69
2022/09/25 07:27:27;;;;;;;1.52;0.95;;;18.30;99.90;;;;;;5033113;28;20556;-68
2022/09/25 07:29:58;;;;;;;2.65;1.20;;;18.20;99.90;;;;;;5032853;28;20556;-69
2022/09/25 07:32:30;;;;;;;2.95;1.30;;;18.10;99.90;;;;;;5032264;28;20190;-70
2022/09/25 07:35:01;;;;;;;1.85;1.25;;;18.00;99.90;;;;;;5032903;28;20191;-69
2022/09/25 07:37:34;;;;;;;2.88;1.10;;;18.00;99.90;;;;;;5032867;28;20721;-68
2022/09/25 07:40:04;;;;;;;5.15;1.88;;;17.90;99.90;;;;;;5027578;28;20581;-68
2022/09/25 07:42:35;;;;;;;3.10;1.60;;;17.90;99.90;;;;;;5033189;28;20194;-70
2022/09/25 07:45:06;;;;;;;1.55;1.30;;;17.80;99.90;;;;;;5032712;28;20191;-69
2022/09/25 07:47:40;;;;;;;3.03;1.40;;;17.70;99.90;;;;;;5033074;28;20195;-70
2022/09/25 07:50:11;;;;;;;7.07;1.90;;;17.60;99.90;;;;;;5031511;28;20655;-70
2022/09/25 07:52:44;;;;;;;4.25;1.90;;;17.60;99.90;;;;;;5033181;28;20282;-71
2022/09/25 07:55:15;;;;;;;2.47;1.42;;;17.50;99.90;;;;;;5032653;28;20572;-73
2022/09/25 07:57:45;;;;;;;2.83;1.60;;;17.50;99.90;;;;;;5032639;28;20534;-71
2022/09/25 08:00:16;;;;;;;36.10;26.20;;;17.40;99.90;;;;;;5032218;28;20443;-72
2022/09/25 08:02:56;;;;;;;3.38;2.35;;;17.40;99.90;;;;;;5032778;28;20182;-73
2022/09/25 08:05:27;;;;;;;1.73;1.20;;;17.30;99.90;;;;;;5033372;28;20195;-69
2022/09/25 08:08:00;;;;;;;2.50;1.30;;;17.30;99.90;;;;;;5031582;28;20201;-70
2022/09/25 08:10:30;;;;;;;2.78;1.38;;;17.30;99.90;;;;;;5023843;28;20187;-69
2022/09/25 08:13:01;;;;;;;1.95;1.15;;;17.20;99.90;;;;;;5032253;28;20198;-68
2022/09/25 08:15:32;;;;;;;2.58;1.38;;;17.10;99.90;;;;;;5031587;28;20194;-70
2022/09/25 08:18:03;;;;;;;2.17;1.15;;;17.10;99.90;;;;;;5032532;28;20183;-69
2022/09/25 08:20:34;;;;;;;2.83;1.40;;;17.10;99.90;;;;;;5032424;28;20221;-68
2022/09/25 08:23:07;;;;;;;2.08;1.70;;;17.00;99.90;;;;;;5031580;28;20204;-71
2022/09/25 08:25:38;;;;;;;2.90;1.20;;;17.00;99.90;;;;;;5027723;28;20198;-69
2022/09/25 08:28:09;;;;;;;3.20;1.20;;;17.00;99.90;;;;;;5032177;28;20244;-69
2022/09/25 08:30:39;;;;;;;2.17;1.23;;;16.90;99.90;;;;;;5031086;28;20224;-68
2022/09/25 08:33:13;;;;;;;2.38;1.13;;;16.90;99.90;;;;;;5032686;28;20190;-72
2022/09/25 08:35:44;;;;;;;3.05;1.30;;;16.90;99.90;;;;;;5032768;28;20201;-69
2022/09/25 08:38:18;;;;;;;2.75;1.40;;;16.80;99.90;;;;;;5031954;28;20222;-69
2022/09/25 08:40:55;;;;;;;2.53;1.33;;;16.80;99.90;;;;;;5031521;28;20567;-68
2022/09/25 08:43:27;;;;;;;4.53;1.58;;;16.70;99.90;;;;;;5029059;28;20640;-68
2022/09/25 08:49:06;;;;;;;3.75;1.40;;;16.70;99.90;;;;;;5031502;28;20193;-69
2022/09/25 08:51:40;;;;;;;3.25;1.20;;;16.70;99.90;;;;;;5031267;28;20194;-69
2022/09/25 08:54:20;;;;;;;3.92;1.35;;;16.70;99.90;;;;;;5031658;28;20221;-69
2022/09/25 08:56:53;;;;;;;4.78;1.48;;;16.60;99.90;;;;;;5030819;28;20186;-68
2022/09/25 08:59:29;;;;;;;2.95;1.50;;;16.60;99.90;;;;;;5030420;28;20218;-68
2022/09/25 09:02:01;;;;;;;3.92;1.73;;;16.60;99.90;;;;;;5029430;28;20218;-69
2022/09/25 09:04:34;;;;;;;3.10;1.52;;;16.60;99.90;;;;;;5027261;28;20682;-68
2022/09/25 09:07:10;;;;;;;4.68;1.90;;;16.60;99.90;;;;;;5030741;28;20688;-68
2022/09/25 09:09:46;;;;;;;4.88;2.00;;;16.50;99.90;;;;;;5030706;28;20198;-69
2022/09/25 09:12:21;;;;;;;3.35;1.88;;;16.60;99.90;;;;;;5033787;28;20194;-68
2022/09/25 09:14:56;;;;;;;5.43;2.38;;;16.50;99.90;;;;;;5032324;28;20192;-69
2022/09/25 09:17:28;;;;;;;3.83;2.22;;;16.50;99.90;;;;;;5024394;28;20681;-68
2022/09/25 09:20:08;;;;;;;2.78;1.83;;;16.50;99.90;;;;;;5032613;28;20204;-73
2022/09/25 09:22:43;;;;;;;4.70;2.33;;;16.50;99.90;;;;;;5031344;28;20208;-73
2022/09/25 09:25:30;;;;;;;4.45;2.15;;;16.40;99.90;;;;;;5034214;28;20200;-68
2022/09/25 09:28:15;;;;;;;6.40;2.67;;;16.40;99.90;;;;;;5028985;28;20561;-69
2022/09/25 09:30:54;;;;;;;4.35;2.25;;;16.40;99.90;;;;;;5033535;28;20687;-69
2022/09/25 09:33:38;;;;;;;5.65;2.30;;;16.30;99.90;;;;;;5036311;28;20204;-68
2022/09/25 09:36:14;;;;;;;4.13;2.40;;;16.30;99.90;;;;;;5031003;28;20198;-67
2022/09/25 09:38:51;;;;;;;5.60;2.65;;;16.30;99.90;;;;;;5027622;28;20672;-68
2022/09/25 09:41:37;;;;;;;6.43;2.78;;;16.30;99.90;;;;;;5030682;28;20218;-68
2022/09/25 09:44:22;;;;;;;4.72;2.33;;;16.20;99.90;;;;;;5029739;28;20295;-68
2022/09/25 09:47:02;;;;;;;4.45;2.60;;;16.20;99.90;;;;;;5044896;28;20202;-68
2022/09/25 09:49:39;;;;;;;4.53;2.70;;;16.20;99.90;;;;;;5036081;28;20537;-68
2022/09/25 09:52:18;;;;;;;5.28;2.50;;;16.10;99.90;;;;;;5033442;28;20205;-70
2022/09/25 09:54:55;;;;;;;4.57;2.42;;;16.10;99.90;;;;;;5032694;28;20195;-69
2022/09/25 09:57:29;;;;;;;4.65;2.53;;;16.10;99.90;;;;;;5030136;28;20204;-69
2022/09/25 10:00:03;;;;;;;4.95;2.92;;;16.00;99.90;;;;;;5034281;28;20185;-69
2022/09/25 10:02:38;;;;;;;4.72;2.55;;;16.00;99.90;;;;;;5033520;28;20259;-70
2022/09/25 10:05:17;;;;;;;6.22;2.97;;;16.00;99.90;;;;;;5033131;28;20206;-69
2022/09/25 10:07:49;;;;;;;7.40;2.67;;;16.00;99.90;;;;;;5033462;28;20194;-72
2022/09/25 10:10:22;;;;;;;5.53;2.60;;;15.90;99.90;;;;;;5031384;28;20213;-70
2022/09/25 10:12:58;;;;;;;3.90;2.38;;;15.90;99.90;;;;;;5033316;28;20198;-70
2022/09/25 10:15:43;;;;;;;6.28;2.97;;;15.90;99.90;;;;;;5034930;28;20285;-70
2022/09/25 10:18:14;;;;;;;6.00;3.00;;;15.90;99.90;;;;;;5033473;28;20194;-71
2022/09/25 10:20:48;;;;;;;5.43;2.97;;;15.90;99.90;;;;;;5033471;28;20248;-70
2022/09/25 10:23:33;;;;;;;6.22;3.03;;;15.90;99.90;;;;;;5032802;28;20197;-71
2022/09/25 10:26:05;;;;;;;6.43;3.13;;;15.90;99.90;;;;;;5028713;28;20222;-68
2022/09/25 10:28:38;;;;;;;8.30;3.10;;;15.80;99.90;;;;;;5036797;28;20190;-68
2022/09/25 10:31:09;;;;;;;7.60;2.95;;;15.80;99.90;;;;;;5032984;28;20594;-68
2022/09/25 10:33:40;;;;;;;5.57;2.72;;;15.80;99.90;;;;;;5033145;28;20187;-69
2022/09/25 10:36:11;;;;;;;4.75;2.53;;;15.80;99.90;;;;;;5033875;28;20183;-68
2022/09/25 10:38:47;;;;;;;5.43;2.35;;;15.70;99.90;;;;;;5032242;28;20216;-68
2022/09/25 10:41:19;;;;;;;7.60;2.58;;;15.70;99.90;;;;;;5032438;28;20217;-69
2022/09/25 10:44:01;;;;;;;7.22;2.55;;;15.70;99.90;;;;;;5033494;28;20194;-69
2022/09/25 10:52:10;;;;;;;5.70;2.80;;;15.60;99.90;;;;;;5032749;28;20701;-70
2022/09/25 10:54:41;;;;;;;5.50;2.50;;;15.60;99.90;;;;;;5031738;28;20194;-69
2022/09/25 10:57:24;;;;;;;4.75;2.40;;;15.50;99.90;;;;;;5033083;28;20195;-70
2022/09/25 10:59:57;;;;;;;5.10;2.35;;;15.60;99.90;;;;;;5031114;28;20225;-71
2022/09/25 11:02:35;;;;;;;4.93;2.75;;;15.50;99.90;;;;;;5029585;28;20217;-70
2022/09/25 11:05:07;;;;;;;4.82;2.63;;;15.50;99.90;;;;;;5033566;28;20237;-70
2022/09/25 11:07:38;;;;;;;9.27;2.70;;;15.40;99.90;;;;;;5033467;28;20182;-68
2022/09/25 11:10:20;;;;;;;5.75;2.47;;;15.40;99.90;;;;;;5033945;28;20216;-68
2022/09/25 11:12:52;;;;;;;6.93;2.65;;;15.40;99.90;;;;;;5033147;28;20304;-69
2022/09/25 11:15:27;;;;;;;4.47;2.38;;;15.40;99.90;;;;;;5035273;28;20189;-69
2022/09/25 11:17:59;;;;;;;5.03;2.38;;;15.30;99.90;;;;;;5029631;28;20201;-68
2022/09/25 11:20:31;;;;;;;5.53;2.22;;;15.40;99.90;;;;;;5029361;28;20658;-68
2022/09/25 11:23:31;;;;;;;6.05;2.25;;;15.30;99.90;;;;;;5030012;28;20737;-68
2022/09/25 11:26:08;;;;;;;4.30;2.30;;;15.30;99.90;;;;;;5031201;28;20190;-68
2022/09/25 11:28:44;;;;;;;6.50;2.35;;;15.30;99.90;;;;;;5029393;28;20194;-69
2022/09/25 11:31:23;;;;;;;4.07;2.45;;;15.30;99.90;;;;;;5035959;28;20520;-68
2022/09/25 11:34:06;;;;;;;6.75;2.80;;;15.20;99.90;;;;;;5032425;28;20182;-70
2022/09/25 11:36:41;;;;;;;59.47;37.13;;;15.20;99.90;;;;;;5029534;28;20226;-71
2022/09/25 11:42:10;;;;;;;14.52;11.57;;;15.20;99.90;;;;;;5031486;28;20289;-69
2022/09/25 11:44:56;;;;;;;13.07;6.30;;;15.20;99.90;;;;;;5031333;28;20201;-71
2022/09/25 11:47:35;;;;;;;32.72;21.20;;;15.20;99.90;;;;;;5025991;28;20906;-70
2022/09/25 11:50:08;;;;;;;16.95;9.98;;;15.20;99.90;;;;;;5034341;28;20284;-71
2022/09/25 11:52:46;;;;;;;10.65;4.93;;;15.20;99.90;;;;;;5035144;28;20198;-73
2022/09/25 11:55:38;;;;;;;6.80;3.53;;;15.20;99.90;;;;;;5033804;28;20205;-72
2022/09/25 11:58:32;;;;;;;6.35;2.80;;;15.20;99.90;;;;;;5032806;28;20191;-71
2022/09/25 12:01:08;;;;;;;5.72;2.67;;;15.10;99.90;;;;;;5032812;28;20194;-72
2022/09/25 12:03:54;;;;;;;5.00;2.47;;;15.10;99.90;;;;;;5033119;28;20182;-73
2022/09/25 12:06:47;;;;;;;4.68;2.40;;;15.10;99.90;;;;;;5024165;28;20194;-70
2022/09/25 12:09:39;;;;;;;5.72;2.45;;;15.10;99.90;;;;;;5028383;28;20688;-71
2022/09/25 12:12:23;;;;;;;4.60;2.20;;;15.10;99.90;;;;;;5033721;28;20654;-71
2022/09/25 12:15:02;;;;;;;7.07;2.53;;;15.10;99.90;;;;;;5029203;28;20207;-71
2022/09/25 12:17:42;;;;;;;7.13;2.38;;;15.00;99.90;;;;;;5032187;28;20206;-71
2022/09/25 12:20:22;;;;;;;3.97;2.15;;;15.00;99.90;;;;;;5031839;28;20195;-71
2022/09/25 12:23:02;;;;;;;6.95;2.40;;;15.00;99.90;;;;;;5030868;28;20224;-71
2022/09/25 12:25:46;;;;;;;3.45;2.00;;;15.00;99.90;;;;;;5027809;28;20642;-74
2022/09/25 12:28:28;;;;;;;6.60;2.70;;;15.00;99.90;;;;;;5032383;28;20539;-72
2022/09/25 12:31:06;;;;;;;4.43;2.33;;;15.00;99.90;;;;;;5026793;28;20218;-72
2022/09/25 12:33:44;;;;;;;5.97;2.67;;;15.00;99.90;;;;;;5028554;28;20194;-71
2022/09/25 12:36:21;;;;;;;6.65;2.70;;;15.00;99.90;;;;;;5028840;28;20208;-70
2022/09/25 12:38:57;;;;;;;5.07;2.70;;;14.90;99.90;;;;;;5033130;28;20233;-70
2022/09/25 12:41:32;;;;;;;6.22;2.92;;;14.90;99.90;;;;;;5024783;28;20214;-70
2022/09/25 12:44:07;;;;;;;4.93;2.75;;;14.90;99.90;;;;;;5031970;28;20264;-71
2022/09/25 12:46:44;;;;;;;7.82;2.42;;;14.80;99.90;;;;;;5032036;28;20186;-73
2022/09/25 12:49:19;;;;;;;6.47;2.90;;;14.80;99.90;;;;;;5031337;28;20212;-71
2022/09/25 12:51:53;;;;;;;7.05;2.97;;;14.80;99.90;;;;;;5026015;28;20190;-70
2022/09/25 12:54:28;;;;;;;6.25;2.88;;;14.80;99.90;;;;;;5029000;28;20915;-74
2022/09/25 12:57:01;;;;;;;6.05;2.85;;;14.70;99.90;;;;;;5035559;28;20592;-70
2022/09/25 12:59:37;;;;;;;5.75;2.70;;;14.70;99.90;;;;;;5033837;28;20186;-68
2022/09/25 13:02:17;;;;;;;6.93;2.78;;;14.70;99.90;;;;;;5032818;28;20260;-68
2022/09/25 13:05:02;;;;;;;6.20;2.80;;;14.60;99.90;;;;;;5040414;28;20190;-69
2022/09/25 13:07:41;;;;;;;7.55;2.92;;;14.60;99.90;;;;;;5030765;28;20241;-69
2022/09/25 13:10:27;;;;;;;5.00;2.58;;;14.50;99.90;;;;;;5036811;28;20242;-68
2022/09/25 13:13:01;;;;;;;4.88;2.65;;;14.50;99.90;;;;;;5027833;28;20214;-68
2022/09/25 13:15:34;;;;;;;8.10;2.92;;;14.40;99.90;;;;;;5036235;28;20192;-68
2022/09/25 13:18:07;;;;;;;4.50;2.25;;;14.40;99.90;;;;;;5035702;28;20189;-69
2022/09/25 13:20:56;;;;;;;6.10;3.10;;;14.30;99.90;;;;;;5043631;28;20186;-68
2022/09/25 13:23:40;;;;;;;6.25;3.05;;;14.20;99.90;;;;;;5038207;28;20228;-68
2022/09/25 13:26:15;;;;;;;5.53;3.00;;;14.20;99.90;;;;;;5035816;28;20269;-70
2022/09/25 13:28:54;;;;;;;5.85;2.92;;;14.20;99.90;;;;;;5036211;28;20190;-68
2022/09/25 13:31:26;;;;;;;7.10;3.20;;;14.20;99.90;;;;;;5036372;28;20222;-68
2022/09/25 13:34:04;;;;;;;6.18;3.20;;;14.20;99.90;;;;;;5033655;28;20709;-68
2022/09/25 13:36:48;;;;;;;5.15;2.95;;;14.10;99.90;;;;;;5030759;28;20230;-68
2022/09/25 13:42:26;;;;;;;5.45;2.97;;;14.10;99.90;;;;;;5028734;28;20221;-68
2022/09/25 13:45:26;;;;;;;5.25;3.30;;;14.10;99.90;;;;;;5034735;28;20198;-68
2022/09/25 13:48:06;;;;;;;7.47;3.15;;;14.10;99.90;;;;;;5031430;28;20251;-68